ADDS METAR Data INFO
IDs: Format: Raw Decoded Include TAF

Data at: 0252 UTC 17 Jan 2018

K4A6 170235Z AUTO 35008KT 10SM FEW022 SCT075 OVC095 M08/M13 A3056 RMK AO2
K4A6 170215Z AUTO 35008KT 310V010 10SM FEW024 BKN075 OVC085 M08/M13 A3056 RMK AO2
K4A6 170155Z AUTO 35008KT 10SM FEW070 SCT075 OVC100 M08/M13 A3055 RMK AO2
K4A6 170135Z AUTO 36010KT 10SM FEW020 OVC100 M08/M12 A3054 RMK AO2
K4A6 170115Z AUTO 35010KT 10SM SCT020 BKN090 OVC110 M07/M12 A3053 RMK AO2
K4A6 170055Z AUTO 33008KT 10SM FEW021 SCT090 OVC110 M07/M11 A3054 RMK AO2
K4A6 170035Z AUTO 34008KT 10SM SCT095 BKN120 M07/M12 A3052 RMK AO2
K4A6 170015Z AUTO VRB06KT 10SM FEW050 FEW090 BKN120 M07/M11 A3052 RMK AO2
K4A6 162355Z AUTO 35008KT 10SM SCT050 BKN080 OVC110 M07/M11 A3052 RMK AO2
K4A6 162335Z AUTO 34008KT 300V010 10SM BKN035 BKN050 OVC080 M06/M11 A3051 RMK AO2
K4A6 162315Z AUTO VRB05KT 10SM OVC034 M06/M10 A3051 RMK AO2
K4A6 162255Z AUTO 36007KT 330V030 10SM -SN SCT034 BKN085 M06/M10 A3050 RMK AO2
K4A6 162235Z AUTO 33005KT 7SM -SN FEW048 FEW070 M06/M09 A3050 RMK AO2
K4A6 162215Z AUTO 33008G13KT 6SM -SN FEW026 BKN047 BKN070 M06/M09 A3050 RMK AO2
K4A6 162155Z AUTO VRB04G12KT 4SM -RA BKN046 OVC070 M05/M09 A3049 RMK AO2
K4A6 162135Z AUTO VRB06KT 10SM -RA BKN044 OVC070 M05/M09 A3048 RMK AO2
K4A6 162115Z AUTO 35006G11KT 9SM -RA SCT029 OVC042 M05/M09 A3049 RMK AO2
K4A6 162055Z AUTO 35009G14KT 9SM -RA BKN029 OVC038 M05/M09 A3048 RMK AO2
K4A6 162035Z AUTO 33007KT 7SM -SN OVC037 M05/M08 A3047 RMK AO2
K4A6 162015Z AUTO 31006KT 6SM -SN BKN035 M05/M07 A3047 RMK AO2
K4A6 161955Z AUTO 31005KT 3SM -SN FEW037 M05/M06 A3047 RMK AO2
K4A6 161935Z AUTO VRB05KT 6SM -SN BKN027 M04/M07 A3047 RMK AO2
K4A6 161915Z AUTO 34006KT 8SM -SN OVC026 M04/M07 A3046 RMK AO2
K4A6 161855Z AUTO 33004KT 7SM -DZ OVC025 M04/M07 A3046 RMK AO2
K4A6 161835Z AUTO VRB06KT 10SM -DZ OVC023 M04/M07 A3047 RMK AO2
K4A6 161815Z AUTO 35006KT 10SM -DZ OVC022 M04/M07 A3047 RMK AO2
K4A6 161755Z AUTO 35007G12KT 8SM -SN OVC022 M03/M07 A3047 RMK AO2
K4A6 161735Z AUTO 33007KT 290V360 8SM -SN OVC022 M03/M07 A3048 RMK AO2
K4A6 161715Z AUTO 33009G16KT 4SM -SN OVC021 M03/M06 A3048 RMK AO2
K4A6 161655Z AUTO 33009KT 10SM -RA OVC020 M02/M07 A3048 RMK AO2
K4A6 161635Z AUTO 34007G13KT 310V010 10SM -RA OVC019 M02/M06 A3049 RMK AO2
K4A6 161615Z AUTO 34007KT 10SM OVC019 M01/M05 A3049 RMK AO2
K4A6 161555Z AUTO 33005KT 10SM BKN018 OVC070 M01/M04 A3049 RMK AO2
K4A6 161535Z AUTO 34005KT 10SM BKN070 M00/M04 A3048 RMK AO2
K4A6 161515Z AUTO 35005KT 10SM BKN070 M01/M04 A3048 RMK AO2
K4A6 161455Z AUTO 36004KT 10SM BKN070 BKN110 M01/M04 A3047 RMK AO2
K4A6 161435Z AUTO 34006KT 10SM SCT095 SCT110 M01/M04 A3047 RMK AO2
K4A6 161415Z AUTO 35004KT 10SM BKN100 M01/M04 A3046 RMK AO2
K4A6 161355Z AUTO 01004KT 10SM FEW020 OVC100 M01/M04 A3046 RMK AO2
K4A6 161335Z AUTO 35006KT 10SM BKN019 OVC100 M01/M04 A3046 RMK AO2
K4A6 161315Z AUTO 36006KT 10SM BKN017 OVC065 M01/M04 A3045 RMK AO2
K4A6 161255Z AUTO 35007KT 10SM FEW018 OVC065 M01/M03 A3045 RMK AO2
K4A6 161235Z AUTO VRB06KT 10SM OVC065 M03/M03 A3044 RMK AO2
K4A6 161215Z AUTO 00000KT 10SM OVC065 M03/M03 A3044 RMK AO2
K4A6 161155Z AUTO 00000KT 10SM OVC060 M04/M04 A3044 RMK AO2
K4A6 161135Z AUTO 00000KT 10SM OVC060 M04/M04 A3042 RMK AO2
K4A6 161115Z AUTO 00000KT 10SM BKN060 M04/M04 A3041 RMK AO2
K4A6 161055Z AUTO 00000KT 10SM CLR M04/M04 A3039 RMK AO2
K4A6 161035Z AUTO 00000KT 10SM CLR M04/M04 A3039 RMK AO2
K4A6 161015Z AUTO 00000KT 10SM CLR M04/M04 A3040 RMK AO2
K4A6 160955Z AUTO 00000KT 10SM CLR M04/M04 A3040 RMK AO2
K4A6 160935Z AUTO 00000KT 10SM CLR M04/M04 A3039 RMK AO2
K4A6 160915Z AUTO 00000KT 10SM CLR M04/M04 A3037 RMK AO2
K4A6 160855Z AUTO 00000KT 10SM CLR M03/M04 A3036 RMK AO2
K4A6 160835Z AUTO 00000KT 10SM CLR M03/M04 A3037 RMK AO2
K4A6 160815Z AUTO 00000KT 10SM CLR M03/M04 A3038 RMK AO2
K4A6 160755Z AUTO 00000KT 10SM CLR M03/M04 A3037 RMK AO2
K4A6 160735Z AUTO 00000KT 10SM CLR M03/M04 A3036 RMK AO2
K4A6 160715Z AUTO 00000KT 10SM CLR M03/M04 A3036 RMK AO2
K4A6 160655Z AUTO 00000KT 10SM CLR M03/M04 A3036 RMK AO2
K4A6 160635Z AUTO 00000KT 10SM CLR M03/M04 A3036 RMK AO2
K4A6 160615Z AUTO 00000KT 10SM CLR M03/M04 A3037 RMK AO2
K4A6 160555Z AUTO 00000KT 10SM CLR M02/M04 A3037 RMK AO2
K4A6 160535Z AUTO 00000KT 10SM CLR M02/M04 A3038 RMK AO2
K4A6 160515Z AUTO 00000KT 10SM CLR M02/M04 A3038 RMK AO2
K4A6 160455Z AUTO 00000KT 10SM CLR M02/M04 A3038 RMK AO2
K4A6 160435Z AUTO 25005KT 10SM CLR M00/M04 A3038 RMK AO2
K4A6 160415Z AUTO 00000KT 10SM CLR M02/M04 A3039 RMK AO2
K4A6 160355Z AUTO 00000KT 10SM CLR M02/M04 A3040 RMK AO2
K4A6 160335Z AUTO 00000KT 10SM CLR M02/M04 A3039 RMK AO2
K4A6 160315Z AUTO 00000KT 10SM CLR M01/M04 A3039 RMK AO2
K4A6 160255Z AUTO 00000KT 10SM CLR M01/M04 A3038 RMK AO2
K4A6 160235Z AUTO 00000KT 10SM CLR M01/M04 A3038 RMK AO2
K4A6 160215Z AUTO 00000KT 10SM CLR M00/M04 A3038 RMK AO2
K4A6 160155Z AUTO 00000KT 10SM CLR M00/M04 A3038 RMK AO2
K4A6 160135Z AUTO 00000KT 10SM CLR 00/M04 A3037 RMK AO2
K4A6 160115Z AUTO 00000KT 10SM CLR 01/M04 A3037 RMK AO2
K4A6 160055Z AUTO 00000KT 10SM CLR 01/M04 A3037 RMK AO2
K4A6 160035Z AUTO 00000KT 10SM CLR 02/M05 A3036 RMK AO2
K4A6 160015Z AUTO 00000KT 10SM CLR 03/M04 A3036 RMK AO2
K4A6 152355Z AUTO 00000KT 10SM CLR 04/M04 A3036 RMK AO2
K4A6 152335Z AUTO 00000KT 10SM CLR 05/M05 A3036 RMK AO2
K4A6 152315Z AUTO 00000KT 10SM CLR 07/M05 A3036 RMK AO2
K4A6 152255Z AUTO 22005KT 10SM CLR 08/M06 A3036 RMK AO2
K4A6 152235Z AUTO 22006KT 10SM CLR 09/M06 A3036 RMK AO2
K4A6 152215Z AUTO 21009G14KT 10SM CLR 09/M06 A3035 RMK AO2
K4A6 152155Z AUTO 23009G14KT 10SM CLR 09/M06 A3035 RMK AO2
K4A6 152135Z AUTO 23008KT 10SM CLR 09/M06 A3035 RMK AO2
K4A6 152115Z AUTO 22008G15KT 190V270 10SM CLR 09/M06 A3035 RMK AO2
K4A6 152055Z AUTO 22009G19KT 10SM CLR 09/M07 A3035 RMK AO2
K4A6 152035Z AUTO 22009G15KT 170V230 10SM CLR 09/M07 A3035 RMK AO2
K4A6 152015Z AUTO 19011KT 10SM CLR 09/M07 A3035 RMK AO2
K4A6 151955Z AUTO 17009KT 140V200 10SM CLR 09/M07 A3035 RMK AO2
K4A6 151935Z AUTO 21007G13KT 180V240 10SM CLR 09/M07 A3036 RMK AO2
K4A6 151915Z AUTO VRB06G12KT 10SM CLR 08/M07 A3037 RMK AO2
K4A6 151855Z AUTO 21007G13KT 140V260 10SM CLR 09/M07 A3037 RMK AO2
K4A6 151835Z AUTO 20007G15KT 170V230 10SM CLR 08/M08 A3039 RMK AO2
K4A6 151815Z AUTO 21009G17KT 10SM CLR 08/M08 A3040 RMK AO2
K4A6 151755Z AUTO 24012KT 10SM CLR 08/M08 A3041 RMK AO2
K4A6 151735Z AUTO VRB06G13KT 210V270 10SM CLR 07/M08 A3043 RMK AO2
K4A6 151715Z AUTO 23010KT 10SM CLR 07/M08 A3043 RMK AO2
K4A6 151655Z AUTO 25008KT 10SM CLR 06/M08 A3044 RMK AO2
K4A6 151635Z AUTO 21009KT 10SM CLR 06/M09 A3045 RMK AO2
K4A6 151615Z AUTO 23009KT 180V240 10SM CLR 05/M09 A3045 RMK AO2
K4A6 151555Z AUTO 22007KT 10SM CLR 05/M09 A3046 RMK AO2
K4A6 151535Z AUTO 22007KT 10SM CLR 04/M08 A3046 RMK AO2
K4A6 151515Z AUTO 23006KT 10SM CLR 02/M08 A3046 RMK AO2
K4A6 151455Z AUTO 00000KT 10SM CLR 01/M06 A3046 RMK AO2